| Time | Avg. Air Temp | Dew Point | Avg. Rel Humidity | Avg. 2 Min Wind Speed | Max Gust Velocity | MGV Time | MGV Direction | Avg. Spot Wind Velocity |
|---|---|---|---|---|---|---|---|---|
| 2026-05-06 04:10:00 | 6° C | -6° C | 43% | 28 km/h | 32 km/h | 04:07:00 | W | 29 km/h |
| 03:10:00 | 6° C | -6° C | 42% | 29 km/h | 32 km/h | 03:09:00 | W | 27 km/h |
| 02:10:00 | 7° C | -6° C | 40% | 21 km/h | 24 km/h | 02:08:00 | W | 21 km/h |
| 01:10:00 | 6° C | -7° C | 38% | 20 km/h | 21 km/h | 01:07:00 | W | 20 km/h |
| 00:10:00 | 7° C | -7° C | 39% | 11 km/h | 15 km/h | 00:06:00 | W | 12 km/h |
| 23:10:00 | 6° C | -8° C | 37% | 6 km/h | 8 km/h | 23:06:00 | W | 6 km/h |
| 22:10:00 | 6° C | -7° C | 38% | 9 km/h | 9 km/h | 22:08:00 | NW | 9 km/h |
| 21:10:00 | 5° C | -8° C | 39% | 6 km/h | 9 km/h | 21:09:00 | N | 6 km/h |
| 20:10:00 | 6° C | -8° C | 38% | 8 km/h | 16 km/h | 20:06:00 | N | 6 km/h |
| 19:10:00 | 5° C | -8° C | 38% | 13 km/h | 18 km/h | 19:10:00 | NE | 10 km/h |
| 18:10:00 | 6° C | -8° C | 36% | 9 km/h | 20 km/h | 18:08:00 | NE | 5 km/h |
| 17:10:00 | 6° C | -9° C | 37% | 8 km/h | 13 km/h | 17:10:00 | N | 6 km/h |
| 16:10:00 | 6° C | -7° C | 40% | 13 km/h | 25 km/h | 16:09:00 | NW | 11 km/h |
| 15:10:00 | 5° C | -7° C | 41% | 5 km/h | 10 km/h | 15:08:00 | NW | 5 km/h |
| 14:10:00 | 6° C | -7° C | 42% | 5 km/h | 7 km/h | 14:09:00 | W | 3 km/h |
| 13:10:00 | 4° C | -7° C | 46% | 5 km/h | 14 km/h | 13:06:00 | E | 7 km/h |
| 12:10:00 | 4° C | -6° C | 45% | 0 km/h | 2 km/h | 12:08:00 | SW | 0 km/h |
| 11:10:00 | 3° C | -6° C | 49% | 2 km/h | 10 km/h | 11:07:00 | NE | 5 km/h |
| 10:10:00 | 2° C | -8° C | 48% | 11 km/h | 14 km/h | 10:08:00 | NE | 12 km/h |
| 09:10:00 | 1° C | -8° C | 50% | 19 km/h | 26 km/h | 09:09:00 | NE | 21 km/h |
| 08:10:00 | 1° C | -8° C | 51% | 30 km/h | 32 km/h | 08:08:00 | NE | 27 km/h |
| 07:10:00 | 0° C | -8° C | 54% | 18 km/h | 26 km/h | 07:06:00 | NE | 20 km/h |
| 06:10:00 | 0° C | -8° C | 53% | 17 km/h | 33 km/h | 06:08:00 | NE | 21 km/h |
| 05:10:00 | 0° C | -8° C | 53% | 24 km/h | 35 km/h | 05:06:00 | NE | 25 km/h |
Subpeak Weather
| Time | Avg. Air Temp | Dew Point | Avg. Rel Humidity | Avg. 2 Min Wind Speed | Max Gust Velocity | MGV Time | MGV Direction | Avg. Spot Wind Velocity |
|---|---|---|---|---|---|---|---|---|
| 2026-05-06 04:10:00 | 6° C | -6° C | 43% | 28 km/h | 32 km/h | 04:07:00 | W | 29 km/h |
| 04:05:00 | 6° C | -5° C | 43% | 30 km/h | 32 km/h | 04:03:00 | W | 31 km/h |
| 04:00:00 | 6° C | -6° C | 43% | 30 km/h | 31 km/h | 03:58:00 | W | 29 km/h |
| 03:55:00 | 6° C | -6° C | 43% | 28 km/h | 31 km/h | 03:54:00 | W | 28 km/h |
| 03:50:00 | 6° C | -6° C | 43% | 29 km/h | 30 km/h | 03:49:00 | W | 28 km/h |
| 03:45:00 | 6° C | -6° C | 43% | 25 km/h | 30 km/h | 03:42:00 | W | 26 km/h |
| 03:40:00 | 6° C | -5° C | 43% | 26 km/h | 30 km/h | 03:40:00 | W | 27 km/h |
| 03:35:00 | 6° C | -5° C | 43% | 28 km/h | 29 km/h | 03:35:00 | W | 28 km/h |
| 03:30:00 | 6° C | -5° C | 43% | 26 km/h | 31 km/h | 03:28:00 | W | 27 km/h |
| 03:25:00 | 6° C | -5° C | 42% | 27 km/h | 30 km/h | 03:22:00 | W | 28 km/h |
| 03:20:00 | 6° C | -6° C | 42% | 27 km/h | 29 km/h | 03:20:00 | W | 27 km/h |
| 03:15:00 | 6° C | -6° C | 42% | 28 km/h | 31 km/h | 03:14:00 | W | 29 km/h |
| 03:10:00 | 6° C | -6° C | 42% | 29 km/h | 32 km/h | 03:09:00 | W | 27 km/h |




